Time;durP1;ratioP1;P1;durP2;ratioP2;P2;SDS_P1;SDS_P2;PMS_P1;PMS_P2;Temp;Humidity;BMP_temperature;BMP_pressure;BME280_temperature;BME280_humidity;BME280_pressure;Samples;Min_cycle;Max_cycle;Signal;HPM_P1;HPM_P2
2022/03/06 00:01:12;;;;;;;46.97;17.67;;;;;;;10.56;46.21;102234.47;4914789;29;20044;-51
2022/03/06 00:03:39;;;;;;;46.10;17.65;;;;;;;10.54;46.14;102240.97;4907673;29;20040;-46
2022/03/06 00:06:05;;;;;;;46.33;17.83;;;;;;;10.50;45.95;102242.28;4907859;29;20041;-48
2022/03/06 00:08:31;;;;;;;42.08;17.80;;;;;;;10.54;45.98;102243.63;4914266;29;20077;-47
2022/03/06 00:10:57;;;;;;;43.03;16.70;;;;;;;10.56;46.38;102249.66;4903246;29;20041;-48
2022/03/06 00:13:23;;;;;;;42.65;16.83;;;;;;;10.39;46.75;102249.56;4913226;29;20274;-49
2022/03/06 00:15:48;;;;;;;42.30;16.37;;;;;;;10.29;47.17;102247.03;4908730;29;20036;-45
2022/03/06 00:18:14;;;;;;;41.50;17.87;;;;;;;10.25;47.29;102253.66;4906810;29;20051;-47
2022/03/06 00:20:41;;;;;;;39.97;16.33;;;;;;;10.26;47.47;102247.31;4915148;29;20104;-49
2022/03/06 00:23:07;;;;;;;45.40;18.83;;;;;;;10.29;47.65;102240.81;4918551;29;20057;-48
2022/03/06 00:25:32;;;;;;;46.58;18.55;;;;;;;10.16;48.21;102252.78;4911861;29;20116;-48
2022/03/06 00:27:58;;;;;;;39.57;16.63;;;;;;;10.02;48.78;102256.84;4909712;29;20036;-47
2022/03/06 00:30:24;;;;;;;31.02;13.43;;;;;;;10.00;48.91;102258.03;4905277;29;20046;-50
2022/03/06 00:32:50;;;;;;;47.37;18.83;;;;;;;9.98;49.31;102254.69;4915208;29;20069;-49
2022/03/06 00:35:15;;;;;;;46.42;18.35;;;;;;;9.99;49.04;102259.84;4904098;29;20044;-49
2022/03/06 00:37:41;;;;;;;44.50;17.33;;;;;;;10.04;48.71;102256.72;4894534;29;20040;-50
2022/03/06 00:40:08;;;;;;;44.78;18.42;;;;;;;9.84;49.97;102264.91;4910801;29;20044;-47
2022/03/06 00:42:34;;;;;;;;;;;;;;;9.92;50.08;102260.63;4904341;29;20033;-46
2022/03/06 00:44:59;;;;;;;42.00;17.43;;;;;;;9.90;50.03;102260.78;4914712;29;19975;-48
2022/03/06 00:47:25;;;;;;;44.23;16.77;;;;;;;9.94;49.91;102266.69;4904937;29;20041;-48
2022/03/06 00:49:51;;;;;;;38.83;16.20;;;;;;;9.90;50.08;102263.47;4911200;29;20045;-49
2022/03/06 00:52:17;;;;;;;34.90;12.63;;;;;;;9.83;50.50;102263.25;4899145;29;20040;-49
2022/03/06 00:54:43;;;;;;;45.25;17.83;;;;;;;9.81;50.38;102270.59;4906056;29;20066;-47
2022/03/06 00:57:08;;;;;;;41.60;18.30;;;;;;;9.80;50.42;102273.38;4921736;29;20126;-51
2022/03/06 00:59:35;;;;;;;39.73;16.97;;;;;;;9.71;50.94;102270.66;4915309;29;20050;-49
2022/03/06 01:02:03;;;;;;;37.65;16.50;;;;;;;9.56;51.16;102277.53;4913218;29;20056;-45
2022/03/06 01:04:28;;;;;;;40.45;16.50;;;;;;;9.55;51.54;102276.72;4908216;29;20037;-47
2022/03/06 01:06:54;;;;;;;38.88;16.77;;;;;;;9.60;51.26;102278.94;4918325;29;20036;-52
2022/03/06 01:09:20;;;;;;;41.17;17.67;;;;;;;9.60;51.33;102277.09;4891283;29;20040;-49
2022/03/06 01:11:46;;;;;;;49.35;17.40;;;;;;;9.33;51.54;102276.19;4913733;29;20036;-49
2022/03/06 01:14:11;;;;;;;46.10;16.27;;;;;;;9.50;51.83;102278.16;4914266;29;20052;-49
2022/03/06 01:16:36;;;;;;;38.43;16.50;;;;;;;9.52;51.47;102281.50;4907084;29;20076;-50
2022/03/06 01:19:03;;;;;;;38.97;15.68;;;;;;;9.52;51.55;102284.19;4918150;29;20041;-48
2022/03/06 01:21:28;;;;;;;38.15;16.10;;;;;;;9.55;51.20;102286.53;4908653;29;20025;-51
2022/03/06 01:23:54;;;;;;;42.63;17.20;;;;;;;9.53;51.19;102292.06;4912495;29;20114;-49
2022/03/06 01:26:19;;;;;;;45.73;18.37;;;;;;;9.45;51.17;102292.81;4915015;29;20044;-48
2022/03/06 01:28:46;;;;;;;42.33;16.77;;;;;;;9.47;51.71;102290.81;4905481;29;20108;-47
2022/03/06 01:31:11;;;;;;;32.87;13.43;;;;;;;9.43;52.05;102288.59;4917738;29;20052;-45
2022/03/06 01:33:37;;;;;;;34.53;14.90;;;;;;;9.39;52.61;102292.56;4909465;29;20168;-45
2022/03/06 01:36:03;;;;;;;40.80;15.13;;;;;;;9.38;52.19;102290.91;4911099;29;20082;-49
2022/03/06 01:38:29;;;;;;;33.85;14.80;;;;;;;9.27;52.69;102300.81;4916048;29;20100;-47
2022/03/06 01:40:55;;;;;;;36.93;15.80;;;;;;;9.25;53.25;102297.47;4905350;29;20033;-47
2022/03/06 01:43:20;;;;;;;27.88;11.48;;;;;;;9.29;53.18;102293.50;4916654;29;20037;-49
2022/03/06 01:45:47;;;;;;;32.95;15.48;;;;;;;9.23;53.24;102302.13;4910398;29;20045;-46
2022/03/06 01:48:12;;;;;;;34.93;14.83;;;;;;;9.19;53.49;102292.69;4909760;29;20105;-47
2022/03/06 01:50:39;;;;;;;39.57;15.13;;;;;;;9.23;53.21;102306.59;4916727;29;20044;-45
2022/03/06 01:53:07;;;;;;;35.42;15.18;;;;;;;9.19;53.35;102300.72;4905472;29;20118;-48
2022/03/06 01:55:33;;;;;;;37.75;15.10;;;;;;;9.14;53.31;102298.50;4914606;29;20043;-46
2022/03/06 01:58:02;;;;;;;32.88;14.60;;;;;;;9.02;53.89;102305.03;4911981;29;20040;-47
2022/03/06 02:00:32;;;;;;;35.10;15.80;;;;;;;9.08;53.61;102300.94;4906710;29;20039;-47
2022/03/06 02:02:58;;;;;;;36.83;14.93;;;;;;;9.13;53.19;102309.31;4917642;29;20041;-46
2022/03/06 02:05:25;;;;;;;35.72;14.65;;;;;;;9.14;53.21;102308.34;4907219;29;20039;-48
2022/03/06 02:07:51;;;;;;;36.72;14.95;;;;;;;9.01;53.36;102306.88;4912207;29;20039;-47
2022/03/06 02:10:17;;;;;;;38.73;14.13;;;;;;;8.70;54.93;102317.00;4913780;29;20045;-48
2022/03/06 02:12:44;;;;;;;30.95;14.27;;;;;;;8.81;54.49;102314.13;4905428;29;20157;-46
2022/03/06 02:15:12;;;;;;;39.97;16.17;;;;;;;8.97;53.73;102309.97;4917328;29;20057;-46
2022/03/06 02:17:38;;;;;;;37.92;14.75;;;;;;;8.89;53.75;102308.91;4908450;29;20064;-45
2022/03/06 02:20:18;;;;;;;40.13;14.75;;;;;;;8.90;54.18;102307.06;4910536;29;20041;-47
2022/03/06 02:22:45;;;;;;;32.70;15.00;;;;;;;8.96;53.60;102313.63;4916617;29;20072;-45
2022/03/06 02:25:29;;;;;;;34.92;15.05;;;;;;;8.80;53.79;102319.63;4901732;29;20041;-47
2022/03/06 02:27:58;;;;;;;40.40;14.63;;;;;;;8.72;54.43;102329.16;4901659;29;20036;-52
2022/03/06 02:30:29;;;;;;;34.28;16.63;;;;;;;8.70;54.13;102325.81;4913970;29;20108;-45
2022/03/06 02:32:58;;;;;;;31.45;14.98;;;;;;;8.67;54.44;102326.09;4904489;29;20037;-45
2022/03/06 02:35:25;;;;;;;35.75;15.57;;;;;;;8.74;54.21;102323.69;4915565;29;20061;-47
2022/03/06 02:37:51;;;;;;;32.22;14.52;;;;;;;8.75;54.01;102326.19;4909530;29;20047;-46
2022/03/06 02:40:17;;;;;;;;;;;;;;;8.74;54.06;102327.19;4908853;29;20104;-48
2022/03/06 02:42:45;;;;;;;31.50;13.85;;;;;;;8.63;54.22;102318.53;4915774;29;19916;-49
2022/03/06 02:45:21;;;;;;;35.88;15.25;;;;;;;8.60;54.35;102320.50;4904528;29;20029;-48
2022/03/06 02:47:47;;;;;;;40.97;16.42;;;;;;;8.75;53.63;102309.38;4912238;29;20061;-46
2022/03/06 02:50:16;;;;;;;34.00;16.38;;;;;;;8.65;54.07;102320.09;4912185;29;20095;-47
2022/03/06 02:52:42;;;;;;;33.10;15.13;;;;;;;8.59;54.09;102318.00;4904974;29;20075;-47
2022/03/06 02:55:09;;;;;;;42.30;16.60;;;;;;;8.60;53.97;102320.50;4916576;29;20040;-46
2022/03/06 02:57:34;;;;;;;36.75;14.73;;;;;;;8.57;54.35;102315.47;4906970;29;20378;-48
2022/03/06 03:00:01;;;;;;;32.45;13.73;;;;;;;8.52;54.85;102316.88;4910384;29;20033;-47
2022/03/06 03:02:26;;;;;;;35.22;15.23;;;;;;;8.39;55.10;102315.38;4913781;29;20050;-46
2022/03/06 03:04:52;;;;;;;32.65;14.13;;;;;;;8.40;55.14;102327.72;4904049;29;20059;-44
2022/03/06 03:07:18;;;;;;;34.00;15.50;;;;;;;8.32;55.44;102316.94;4915680;29;20089;-47
2022/03/06 03:09:43;;;;;;;26.38;12.13;;;;;;;8.31;55.51;102328.59;4908059;29;20100;-47
2022/03/06 03:12:09;;;;;;;31.47;15.17;;;;;;;8.33;55.45;102321.28;4908685;29;20081;-48
2022/03/06 03:14:36;;;;;;;31.63;15.45;;;;;;;8.25;55.45;102326.47;4914737;29;20060;-45
2022/03/06 03:17:05;;;;;;;29.83;14.23;;;;;;;8.20;55.78;102318.94;4903653;29;20048;-46
2022/03/06 03:19:32;;;;;;;32.45;14.45;;;;;;;8.21;55.64;102325.06;4913873;29;20116;-45
2022/03/06 03:21:58;;;;;;;29.10;13.77;;;;;;;8.14;56.24;102320.34;4909646;29;20048;-44
2022/03/06 03:24:25;;;;;;;34.40;13.63;;;;;;;8.18;55.81;102313.72;4907048;29;20158;-44
2022/03/06 03:26:51;;;;;;;32.67;14.32;;;;;;;8.12;55.57;102324.97;4899721;29;20051;-45
2022/03/06 03:29:17;;;;;;;31.98;14.32;;;;;;;7.80;56.94;102322.59;4904185;29;20089;-47
2022/03/06 03:31:44;;;;;;;36.20;15.02;;;;;;;7.94;57.40;102318.66;4912228;29;20100;-48
2022/03/06 03:34:09;;;;;;;32.85;15.40;;;;;;;8.14;55.86;102319.47;4910913;29;20044;-50
2022/03/06 03:36:35;;;;;;;35.22;14.82;;;;;;;8.05;55.68;102318.50;4905459;29;20048;-47
2022/03/06 03:39:02;;;;;;;38.90;14.55;;;;;;;8.14;55.39;102320.34;4899663;29;20040;-48
2022/03/06 03:41:28;;;;;;;32.88;14.35;;;;;;;8.07;55.85;102324.53;4905354;29;20063;-45
2022/03/06 03:43:53;;;;;;;37.67;16.33;;;;;;;7.94;56.41;102319.50;4902884;29;20036;-49
2022/03/06 03:46:19;;;;;;;31.55;14.48;;;;;;;7.99;55.92;102327.06;4918976;29;20047;-45
2022/03/06 03:48:45;;;;;;;34.05;14.65;;;;;;;7.95;56.15;102334.50;4904009;29;20059;-47
2022/03/06 03:51:11;;;;;;;25.52;12.98;;;;;;;7.94;56.40;102332.00;4915620;29;20069;-48
2022/03/06 03:53:37;;;;;;;32.75;14.45;;;;;;;7.95;56.71;102339.00;4906314;29;20044;-48
2022/03/06 03:56:04;;;;;;;28.03;13.83;;;;;;;7.95;56.69;102333.66;4909365;29;20068;-45
2022/03/06 03:58:30;;;;;;;36.25;14.18;;;;;;;7.71;57.78;102333.09;4912961;29;20036;-45
2022/03/06 04:00:55;;;;;;;24.27;10.97;;;;;;;7.83;56.71;102332.97;4903438;29;20040;-48
2022/03/06 04:03:21;;;;;;;34.50;14.93;;;;;;;7.83;56.45;102339.13;4915111;29;20085;-50
2022/03/06 04:05:47;;;;;;;31.52;14.45;;;;;;;7.83;56.67;102344.44;4907431;29;20048;-47
2022/03/06 04:08:12;;;;;;;35.40;14.63;;;;;;;7.79;56.93;102339.56;4908333;29;20057;-46
2022/03/06 04:10:38;;;;;;;40.53;15.20;;;;;;;7.77;57.19;102345.03;4913762;29;20054;-48
2022/03/06 04:13:03;;;;;;;27.92;12.93;;;;;;;7.74;56.95;102347.97;4902999;29;20075;-47
2022/03/06 04:15:29;;;;;;;30.42;15.55;;;;;;;7.71;57.20;102346.41;4913788;29;20037;-47
2022/03/06 04:17:55;;;;;;;32.08;13.65;;;;;;;7.68;57.31;102352.03;4908378;29;20077;-50
2022/03/06 04:20:21;;;;;;;30.02;12.70;;;;;;;7.66;57.09;102347.81;4907223;29;20046;-45
2022/03/06 04:22:47;;;;;;;31.67;13.40;;;;;;;7.56;57.57;102345.97;4914958;29;20043;-46
2022/03/06 04:25:12;;;;;;;30.80;13.40;;;;;;;7.65;57.21;102343.50;4905771;29;20064;-49
2022/03/06 04:27:37;;;;;;;34.67;14.47;;;;;;;7.59;57.43;102347.53;4916553;29;20037;-47
2022/03/06 04:30:04;;;;;;;25.50;11.17;;;;;;;7.52;57.53;102351.75;4912948;29;20069;-48
2022/03/06 04:32:30;;;;;;;30.33;13.35;;;;;;;7.36;58.29;102357.56;4909665;29;20064;-44
2022/03/06 04:34:56;;;;;;;28.53;14.50;;;;;;;7.39;58.40;102359.97;4919183;29;20044;-50
2022/03/06 04:37:21;;;;;;;26.30;13.10;;;;;;;7.48;58.21;102359.16;4907458;29;20036;-49
2022/03/06 04:39:47;;;;;;;38.30;14.93;;;;;;;7.48;57.92;102367.13;4915311;29;20272;-47
2022/03/06 04:42:12;;;;;;;29.47;13.23;;;;;;;7.50;57.87;102375.81;4913826;29;20045;-47
2022/03/06 04:44:38;;;;;;;29.00;13.83;;;;;;;7.54;57.36;102376.41;4908558;29;20036;-47
2022/03/06 04:47:05;;;;;;;28.25;11.65;;;;;;;7.44;57.90;102379.88;4918880;29;20064;-46
2022/03/06 04:49:30;;;;;;;37.17;15.68;;;;;;;7.42;58.56;102389.81;4908124;29;20040;-50
2022/03/06 04:51:56;;;;;;;31.43;13.03;;;;;;;7.38;58.54;102387.53;4913988;29;20044;-49
2022/03/06 04:54:21;;;;;;;29.43;13.50;;;;;;;7.30;58.53;102388.25;4914898;29;20059;-49
2022/03/06 04:56:47;;;;;;;27.30;12.43;;;;;;;7.26;58.72;102393.00;4906965;29;20295;-48
2022/03/06 04:59:12;;;;;;;30.20;13.77;;;;;;;7.28;58.62;102393.69;4918653;29;20040;-46
2022/03/06 05:01:38;;;;;;;29.00;12.97;;;;;;;7.12;60.10;102399.53;4908830;29;20047;-46
2022/03/06 05:04:04;;;;;;;28.00;14.70;;;;;;;7.12;59.93;102404.84;4912658;29;20071;-48
2022/03/06 05:06:30;;;;;;;34.78;13.57;;;;;;;7.23;59.78;102406.56;4915591;29;20057;-49
2022/03/06 05:08:56;;;;;;;22.08;11.73;;;;;;;7.20;59.60;102404.19;4906208;29;20045;-47
2022/03/06 05:11:23;;;;;;;25.27;10.50;;;;;;;7.25;59.34;102396.63;4918155;29;20052;-47
2022/03/06 05:13:48;;;;;;;30.27;13.95;;;;;;;6.98;60.49;102402.53;4909944;29;20039;-49
2022/03/06 05:16:14;;;;;;;26.37;13.83;;;;;;;7.12;60.66;102406.66;4911199;29;20045;-50
2022/03/06 05:18:40;;;;;;;31.23;14.82;;;;;;;7.14;60.17;102407.34;4916749;29;20041;-49
2022/03/06 05:21:05;;;;;;;26.73;12.10;;;;;;;7.25;59.30;102403.75;4906029;29;20048;-46
2022/03/06 05:23:31;;;;;;;25.60;11.13;;;;;;;7.26;59.36;102406.28;4917092;29;20287;-47
2022/03/06 05:25:57;;;;;;;29.50;14.77;;;;;;;7.25;59.22;102409.94;4910901;29;20044;-47
2022/03/06 05:28:24;;;;;;;29.45;14.23;;;;;;;7.29;58.82;102411.34;4909994;29;20296;-46
2022/03/06 05:30:49;;;;;;;27.00;13.25;;;;;;;7.27;59.04;102412.47;4917402;29;20055;-46
2022/03/06 05:33:15;;;;;;;31.85;13.93;;;;;;;7.27;58.64;102413.31;4905867;29;20096;-49
2022/03/06 05:35:40;;;;;;;30.53;15.10;;;;;;;7.17;59.84;102409.78;4915064;29;20067;-47
2022/03/06 05:38:05;;;;;;;26.17;13.33;;;;;;;7.21;59.10;102420.97;4911753;29;20036;-48
2022/03/06 05:40:32;;;;;;;26.03;12.63;;;;;;;7.21;58.67;102415.66;4908748;29;20037;-50
2022/03/06 05:42:57;;;;;;;28.83;13.65;;;;;;;7.25;58.96;102409.09;4918043;29;20311;-46
2022/03/06 05:45:23;;;;;;;29.93;14.20;;;;;;;7.16;58.75;102422.22;4906104;29;20095;-48
2022/03/06 05:47:48;;;;;;;30.07;13.90;;;;;;;7.17;59.17;102423.09;4914292;29;20041;-47
2022/03/06 05:50:14;;;;;;;26.88;11.57;;;;;;;7.03;60.01;102419.78;4912541;29;20040;-46
2022/03/06 05:52:40;;;;;;;30.45;14.07;;;;;;;7.03;59.94;102426.91;4907417;29;20108;-47
2022/03/06 05:55:06;;;;;;;27.85;14.15;;;;;;;7.14;59.84;102428.66;4917793;29;20040;-49
2022/03/06 05:57:33;;;;;;;33.10;14.20;;;;;;;7.21;59.69;102440.47;4906620;29;20056;-45
2022/03/06 05:59:58;;;;;;;28.43;13.47;;;;;;;7.10;60.20;102440.53;4912627;29;20033;-46
2022/03/06 06:02:24;;;;;;;28.80;14.07;;;;;;;7.01;61.48;102437.72;4913663;29;20130;-48
2022/03/06 06:04:50;;;;;;;31.17;11.70;;;;;;;7.02;60.98;102447.38;4905989;29;20032;-47
2022/03/06 06:07:15;;;;;;;30.07;14.47;;;;;;;6.90;61.56;102451.06;4917194;29;20047;-45
2022/03/06 06:09:42;;;;;;;27.92;13.73;;;;;;;7.02;60.66;102450.03;4907555;29;20044;-45
2022/03/06 06:12:08;;;;;;;27.48;13.48;;;;;;;6.99;60.77;102452.97;4911348;29;20075;-46
2022/03/06 06:14:33;;;;;;;35.72;14.50;;;;;;;6.94;61.58;102455.19;4914444;29;20037;-48
2022/03/06 06:16:59;;;;;;;21.42;11.40;;;;;;;6.92;61.65;102457.13;4905035;29;20037;-46
2022/03/06 06:19:24;;;;;;;28.50;14.83;;;;;;;6.90;61.68;102461.72;4916863;29;20064;-49
2022/03/06 06:21:50;;;;;;;29.38;14.07;;;;;;;6.97;61.50;102465.56;4908917;29;20032;-46
2022/03/06 06:24:16;;;;;;;25.10;11.47;;;;;;;6.90;61.81;102464.38;4910090;29;20036;-51
2022/03/06 06:26:43;;;;;;;27.67;13.57;;;;;;;6.96;61.43;102466.53;4915212;29;20037;-47
2022/03/06 06:29:09;;;;;;;32.38;16.05;;;;;;;6.94;62.13;102470.28;4904529;29;20037;-49
2022/03/06 06:31:35;;;;;;;36.80;15.40;;;;;;;6.93;61.97;102471.25;4915484;29;20040;-45
2022/03/06 06:34:01;;;;;;;31.40;14.63;;;;;;;6.85;62.76;102477.22;4909793;29;20040;-47
2022/03/06 06:36:27;;;;;;;24.37;11.73;;;;;;;6.87;63.18;102475.28;4908788;29;20064;-48
2022/03/06 06:38:53;;;;;;;32.97;16.48;;;;;;;6.86;63.24;102486.88;4916363;29;20287;-48
2022/03/06 06:41:19;;;;;;;;;;;;;;;6.94;63.11;102481.78;4904654;29;20040;-44
2022/03/06 06:43:44;;;;;;;31.77;14.93;;;;;;;6.88;63.66;102482.28;4913958;29;19919;-46
2022/03/06 06:46:11;;;;;;;30.80;15.27;;;;;;;6.93;64.27;102485.41;4910455;29;20065;-46
2022/03/06 06:48:37;;;;;;;28.85;14.05;;;;;;;6.95;63.98;102485.25;4906910;29;20037;-46
2022/03/06 06:51:04;;;;;;;31.42;15.35;;;;;;;6.96;64.26;102489.59;4916404;29;20045;-47
2022/03/06 06:53:30;;;;;;;35.10;15.38;;;;;;;7.05;64.07;102491.50;4905312;29;20054;-45
2022/03/06 06:55:55;;;;;;;31.60;14.93;;;;;;;6.98;64.22;102496.50;4912049;29;20120;-45
2022/03/06 06:58:21;;;;;;;28.53;14.37;;;;;;;7.09;63.27;102500.03;4912058;29;20051;-47
2022/03/06 07:00:47;;;;;;;35.50;15.90;;;;;;;7.14;63.78;102500.47;4905617;29;20048;-47
2022/03/06 07:03:12;;;;;;;28.50;15.00;;;;;;;7.11;64.34;102500.75;4916590;29;20048;-48
2022/03/06 07:05:38;;;;;;;27.77;13.80;;;;;;;7.24;63.30;102508.53;4905981;29;20066;-51
2022/03/06 07:08:04;;;;;;;34.45;16.13;;;;;;;7.07;64.67;102504.66;4919911;29;20068;-46
2022/03/06 07:10:29;;;;;;;34.87;15.83;;;;;;;7.29;63.45;102506.34;4907723;29;20052;-47
2022/03/06 07:12:55;;;;;;;31.07;14.53;;;;;;;7.23;63.86;102506.84;4914988;29;20032;-47
2022/03/06 07:15:28;;;;;;;26.20;13.65;;;;;;;7.37;63.34;102516.28;4904153;29;20036;-48
2022/03/06 07:17:56;;;;;;;33.17;14.55;;;;;;;7.61;61.93;102526.63;4912492;29;20040;-51
2022/03/06 07:20:21;;;;;;;30.80;14.35;;;;;;;7.56;63.02;102524.38;4911124;29;20073;-46
2022/03/06 07:22:47;;;;;;;31.80;15.23;;;;;;;7.72;61.65;102536.34;4905350;29;20049;-47
2022/03/06 07:25:12;;;;;;;32.20;15.70;;;;;;;7.69;61.63;102533.97;4916179;29;20515;-49
2022/03/06 07:27:38;;;;;;;31.50;15.33;;;;;;;7.70;62.58;102535.66;4905685;29;20047;-47
2022/03/06 07:30:04;;;;;;;35.37;14.27;;;;;;;7.73;61.94;102538.03;4911066;29;20041;-47
2022/03/06 07:32:30;;;;;;;35.97;15.48;;;;;;;7.87;61.36;102543.00;4880541;29;20051;-50
2022/03/06 07:34:55;;;;;;;30.80;14.40;;;;;;;7.91;61.39;102542.72;4904030;29;20040;-50
2022/03/06 07:37:21;;;;;;;36.23;14.40;;;;;;;7.93;61.16;102551.41;4915968;29;20044;-45
2022/03/06 07:39:46;;;;;;;27.77;13.40;;;;;;;7.84;61.78;102545.94;4906515;29;20040;-45
2022/03/06 07:42:12;;;;;;;33.55;15.02;;;;;;;7.96;62.10;102553.81;4909768;29;20064;-46
2022/03/06 07:44:39;;;;;;;31.50;14.43;;;;;;;8.04;61.78;102560.16;4896871;29;20064;-48
2022/03/06 07:47:04;;;;;;;31.63;13.53;;;;;;;8.17;60.96;102565.22;4903368;29;20060;-45
2022/03/06 07:49:30;;;;;;;29.08;14.30;;;;;;;8.33;60.70;102569.19;4915045;29;20060;-48
2022/03/06 07:51:55;;;;;;;24.73;13.57;;;;;;;8.35;60.70;102575.22;4907196;29;20055;-49
2022/03/06 07:54:21;;;;;;;26.83;12.93;;;;;;;8.39;61.10;102575.78;4908428;29;20068;-47
2022/03/06 07:56:46;;;;;;;28.13;12.80;;;;;;;8.39;60.95;102573.09;4900167;29;20052;-48
2022/03/06 07:59:12;;;;;;;31.42;13.95;;;;;;;8.56;59.97;102579.63;4915538;29;20044;-50
2022/03/06 08:01:37;;;;;;;25.85;13.32;;;;;;;8.79;58.60;102582.88;4904958;29;20040;-46
2022/03/06 08:04:04;;;;;;;28.58;13.23;;;;;;;8.91;57.76;102582.72;4894470;29;20037;-49
2022/03/06 08:06:29;;;;;;;23.70;12.20;;;;;;;9.07;57.55;102582.16;4911644;29;20051;-49
2022/03/06 08:08:54;;;;;;;23.67;11.77;;;;;;;9.02;57.67;102588.75;4904316;29;20104;-50
2022/03/06 08:11:20;;;;;;;22.80;11.53;;;;;;;9.18;57.32;102588.19;4915440;29;20064;-47
2022/03/06 08:13:45;;;;;;;23.83;11.93;;;;;;;9.38;56.39;102590.81;4905859;29;20387;-48
2022/03/06 08:16:11;;;;;;;21.10;11.57;;;;;;;9.09;57.54;102581.00;4909534;29;20075;-48
2022/03/06 08:18:36;;;;;;;19.10;11.43;;;;;;;9.38;57.14;102588.13;4912387;29;20064;-47
2022/03/06 08:21:02;;;;;;;24.83;12.00;;;;;;;9.46;56.42;102585.56;4902988;29;20045;-48
2022/03/06 08:23:27;;;;;;;27.33;11.67;;;;;;;9.69;55.57;102589.75;4915221;29;20041;-51
2022/03/06 08:25:53;;;;;;;26.45;12.45;;;;;;;9.87;55.25;102593.28;4906729;29;20060;-45
2022/03/06 08:28:19;;;;;;;25.23;11.67;;;;;;;10.00;54.28;102592.13;4908550;29;20131;-46
2022/03/06 08:30:44;;;;;;;26.40;11.37;;;;;;;9.52;56.59;102588.66;4912971;29;20052;-46
2022/03/06 08:33:10;;;;;;;20.43;9.90;;;;;;;9.78;55.92;102596.00;4903000;29;20045;-48
2022/03/06 08:35:35;;;;;;;20.87;10.10;;;;;;;10.01;54.54;102593.81;4914303;29;20088;-46
2022/03/06 08:38:01;;;;;;;12.90;7.23;;;;;;;9.92;55.76;102600.03;4907297;29;20040;-51
2022/03/06 08:40:27;;;;;;;21.75;10.27;;;;;;;10.24;53.95;102601.44;4907346;29;20056;-46
2022/03/06 08:42:53;;;;;;;17.53;8.90;;;;;;;10.26;54.21;102599.44;4914144;29;20040;-46
2022/03/06 08:45:19;;;;;;;14.07;7.03;;;;;;;10.80;52.11;102596.84;4902822;29;20120;-48
2022/03/06 08:47:44;;;;;;;18.70;9.52;;;;;;;11.37;50.03;102600.13;4912733;29;20051;-47
2022/03/06 08:50:10;;;;;;;14.40;8.60;;;;;;;11.39;49.58;102590.09;4908140;29;20066;-45
2022/03/06 08:52:35;;;;;;;20.27;9.90;;;;;;;11.95;48.17;102600.41;4906016;29;20104;-46
2022/03/06 08:55:00;;;;;;;22.50;9.10;;;;;;;12.61;46.28;102606.00;4914781;29;20044;-45
2022/03/06 08:57:26;;;;;;;14.00;9.00;;;;;;;13.04;44.62;102605.88;4902350;29;20087;-53
2022/03/06 08:59:53;;;;;;;17.63;8.67;;;;;;;13.27;43.96;102607.88;4912075;29;20045;-50
2022/03/06 09:02:18;;;;;;;12.13;6.05;;;;;;;13.44;43.80;102608.69;4909266;29;20036;-47
2022/03/06 09:04:44;;;;;;;11.57;4.38;;;;;;;14.02;42.93;102612.03;4904960;29;20132;-46
2022/03/06 09:07:10;;;;;;;16.47;7.87;;;;;;;14.75;40.34;102617.16;4914737;29;20052;-48
2022/03/06 09:09:35;;;;;;;15.27;8.77;;;;;;;15.39;39.11;102614.28;4903359;29;20096;-46
2022/03/06 09:12:00;;;;;;;15.33;6.43;;;;;;;15.72;38.18;102614.75;4913993;29;20052;-48
2022/03/06 09:14:26;;;;;;;12.27;6.83;;;;;;;15.56;37.57;102612.22;4913462;29;20092;-44
2022/03/06 09:16:51;;;;;;;11.97;5.93;;;;;;;15.52;37.97;102622.56;4907314;29;20037;-50
2022/03/06 09:19:17;;;;;;;13.10;7.80;;;;;;;16.06;36.52;102620.59;4917881;29;20056;-49
2022/03/06 09:21:43;;;;;;;11.23;6.90;;;;;;;16.79;35.92;102625.16;4902676;29;20044;-50
2022/03/06 09:24:10;;;;;;;9.75;6.57;;;;;;;17.58;34.18;102614.31;4910921;29;20044;-51
2022/03/06 09:26:36;;;;;;;11.43;6.80;;;;;;;17.34;33.66;102622.72;4909203;29;20108;-52
2022/03/06 09:29:02;;;;;;;9.88;4.97;;;;;;;17.72;33.85;102613.38;4901084;29;20055;-48
2022/03/06 09:31:28;;;;;;;;;;;;;;;18.29;32.46;102625.91;4905606;29;20044;-48
2022/03/06 09:33:54;;;;;;;10.83;5.80;;;;;;;17.93;32.80;102617.00;4914626;29;19919;-49
2022/03/06 09:36:19;;;;;;;8.83;5.60;;;;;;;18.78;31.18;102626.63;4911910;29;20047;-51
2022/03/06 09:38:45;;;;;;;9.33;5.73;;;;;;;18.08;32.46;102624.16;4907879;29;20059;-52
2022/03/06 09:41:15;;;;;;;10.07;5.67;;;;;;;18.47;32.68;102625.31;4917737;29;20112;-48
2022/03/06 09:43:41;;;;;;;10.03;6.63;;;;;;;18.88;31.32;102637.06;4907091;29;20119;-48
2022/03/06 09:46:07;;;;;;;;;;;;;;;19.73;30.59;102628.25;4913311;29;20331;-52
2022/03/06 09:48:35;;;;;;;12.37;6.27;;;;;;;20.53;28.87;102622.63;4914069;29;19916;-51
2022/03/06 09:51:01;;;;;;;;;;;;;;;20.63;28.61;102628.44;4906235;29;20300;-47
2022/03/06 09:53:27;;;;;;;11.65;6.03;;;;;;;20.84;28.00;102619.09;4917709;29;19922;-49
2022/03/06 09:55:52;;;;;;;11.57;5.78;;;;;;;20.39;28.35;102625.47;4907972;29;20056;-49
2022/03/06 09:58:18;;;;;;;12.07;5.70;;;;;;;19.34;29.75;102619.94;4911311;29;20123;-46
2022/03/06 10:00:43;;;;;;;9.23;6.07;;;;;;;20.25;29.13;102632.84;4914720;29;20275;-51
2022/03/06 10:03:20;;;;;;;9.15;5.18;;;;;;;20.80;28.51;102622.50;4904938;29;20044;-50
2022/03/06 10:05:46;;;;;;;11.02;5.55;;;;;;;20.95;28.62;102627.59;4915251;29;20048;-49
2022/03/06 10:08:26;;;;;;;10.35;5.80;;;;;;;20.15;28.28;102625.16;4894290;29;20051;-50
2022/03/06 10:11:04;;;;;;;10.70;6.10;;;;;;;20.92;26.90;102629.72;4906540;29;20033;-50
2022/03/06 10:13:34;;;;;;;8.83;5.30;;;;;;;21.41;26.67;102620.06;4904749;29;20268;-48
2022/03/06 10:16:13;;;;;;;10.13;5.20;;;;;;;21.88;26.07;102627.72;4913175;29;20347;-51
2022/03/06 10:18:44;;;;;;;8.73;5.63;;;;;;;21.11;26.59;102623.50;4913385;29;20271;-52
2022/03/06 10:21:14;;;;;;;12.50;5.60;;;;;;;22.84;25.94;102637.13;4903921;29;20351;-48
2022/03/06 10:23:40;;;;;;;7.50;4.40;;;;;;;23.36;25.69;102643.81;4915409;29;20037;-50
2022/03/06 10:26:09;;;;;;;10.85;5.95;;;;;;;23.45;23.83;102639.63;4909086;29;20350;-51
2022/03/06 10:28:55;;;;;;;12.40;5.23;;;;;;;23.45;24.53;102632.28;4908770;29;20044;-53
2022/03/06 10:31:24;;;;;;;10.67;5.33;;;;;;;23.20;25.15;102646.13;4916362;29;20047;-50
2022/03/06 10:33:55;;;;;;;11.13;5.40;;;;;;;22.96;23.44;102632.47;4906690;29;20051;-50
2022/03/06 10:36:30;;;;;;;9.13;5.33;;;;;;;23.23;23.73;102634.75;4910675;29;20041;-50
2022/03/06 10:38:55;;;;;;;10.33;5.47;;;;;;;24.02;22.34;102624.47;4915435;29;20048;-48
2022/03/06 10:41:21;;;;;;;10.00;5.70;;;;;;;23.65;23.68;102624.75;4904376;29;20037;-53
2022/03/06 10:43:48;;;;;;;10.30;5.43;;;;;;;24.74;22.70;102620.25;4914850;29;20056;-52
2022/03/06 10:46:16;;;;;;;8.40;5.73;;;;;;;24.51;22.19;102625.88;4909545;29;20047;-52
2022/03/06 10:49:10;;;;;;;12.10;5.87;;;;;;;24.09;23.57;102630.59;4907611;29;20044;-50
2022/03/06 10:51:41;;;;;;;11.93;6.20;;;;;;;25.01;21.63;102630.56;4904627;29;20032;-52
2022/03/06 10:54:07;;;;;;;8.17;5.33;;;;;;;24.11;23.61;102627.63;4912072;29;20093;-52
2022/03/06 10:56:33;;;;;;;9.23;5.93;;;;;;;25.25;20.83;102635.84;4911383;29;20120;-50
2022/03/06 10:59:02;;;;;;;9.85;5.07;;;;;;;25.25;20.23;102633.09;4905150;29;20037;-50
2022/03/06 11:01:28;;;;;;;8.30;5.00;;;;;;;25.73;20.46;102640.88;4916135;29;20039;-49
2022/03/06 11:03:54;;;;;;;9.30;5.45;;;;;;;26.11;19.82;102633.66;4906827;29;20041;-50
2022/03/06 11:06:20;;;;;;;10.37;4.90;;;;;;;25.25;20.26;102626.78;4910298;29;20061;-51
2022/03/06 11:08:46;;;;;;;10.37;5.30;;;;;;;25.46;20.59;102627.91;4913232;29;20040;-50
2022/03/06 11:11:13;;;;;;;7.63;5.20;;;;;;;26.13;19.52;102631.47;4903645;29;20051;-53
2022/03/06 11:13:39;;;;;;;8.03;5.70;;;;;;;26.44;18.99;102626.31;4915363;29;20041;-51
2022/03/06 11:16:05;;;;;;;12.13;5.13;;;;;;;27.07;18.65;102635.06;4907853;29;20108;-54